createdAt,value
2019-04-27T00:01:13.875Z,13.00
2019-04-27T00:03:57.482Z,13.00
2019-04-27T00:06:28.161Z,13.10
2019-04-27T00:09:07.549Z,13.20
2019-04-27T00:11:42.096Z,13.20
2019-04-27T00:14:14.948Z,13.30
2019-04-27T00:17:09.202Z,13.30
2019-04-27T00:20:12.794Z,13.40
2019-04-27T00:22:47.719Z,13.50
2019-04-27T00:25:20.659Z,13.50
2019-04-27T00:27:51.008Z,13.50
2019-04-27T00:30:21.441Z,13.50
2019-04-27T00:32:53.476Z,13.50
2019-04-27T00:35:30.147Z,13.40
2019-04-27T00:38:14.690Z,13.30
2019-04-27T00:40:50.318Z,13.20
2019-04-27T00:43:20.792Z,13.20
2019-04-27T00:45:51.151Z,13.10
2019-04-27T00:48:23.400Z,13.00
2019-04-27T00:50:53.823Z,12.90
2019-04-27T00:53:24.181Z,12.90
2019-04-27T00:56:16.555Z,12.80
2019-04-27T00:59:05.994Z,12.80
2019-04-27T01:01:55.947Z,12.70
2019-04-27T01:04:29.046Z,12.60
2019-04-27T01:06:59.544Z,12.60
2019-04-27T01:09:30.207Z,12.60
2019-04-27T01:12:00.678Z,12.50
2019-04-27T01:14:31.131Z,12.50
2019-04-27T01:17:01.483Z,12.40
2019-04-27T01:19:31.894Z,12.40
2019-04-27T01:22:02.288Z,12.40
2019-04-27T01:24:32.760Z,12.50
2019-04-27T01:27:24.014Z,12.40
2019-04-27T01:29:55.390Z,12.30
2019-04-27T01:32:25.871Z,12.30
2019-04-27T01:34:56.230Z,12.20
2019-04-27T01:37:26.540Z,12.20
2019-04-27T01:39:57.000Z,12.20
2019-04-27T01:42:27.401Z,12.10
2019-04-27T01:44:59.432Z,12.00
2019-04-27T01:47:30.091Z,12.00
2019-04-27T01:50:00.572Z,12.00
2019-04-27T01:52:30.977Z,12.00
2019-04-27T01:55:01.448Z,12.00
2019-04-27T01:57:31.810Z,11.90
2019-04-27T02:00:02.458Z,11.90
2019-04-27T02:02:42.170Z,11.80
2019-04-27T02:05:31.513Z,11.80
2019-04-27T02:08:01.855Z,11.70
2019-04-27T02:10:32.371Z,11.60
2019-04-27T02:13:02.906Z,11.50
2019-04-27T02:15:33.275Z,11.50
2019-04-27T02:18:04.339Z,11.40
2019-04-27T02:20:34.731Z,11.40
2019-04-27T02:23:05.213Z,11.40
2019-04-27T02:25:35.611Z,11.40
2019-04-27T02:28:15.226Z,11.50
2019-04-27T02:31:15.853Z,11.40
2019-04-27T02:33:50.171Z,11.40
2019-04-27T02:36:20.497Z,11.40
2019-04-27T02:38:51.367Z,11.20
2019-04-27T02:41:21.752Z,11.10
2019-04-27T02:44:09.559Z,11.00
2019-04-27T02:46:39.803Z,10.90
2019-04-27T02:49:10.701Z,10.90
2019-04-27T02:51:56.752Z,10.90
2019-04-27T02:54:29.206Z,10.80
2019-04-27T02:56:59.491Z,10.80
2019-04-27T02:59:30.443Z,10.70
2019-04-27T03:02:12.275Z,10.70
2019-04-27T03:04:42.642Z,10.60
2019-04-27T03:07:13.012Z,10.60
2019-04-27T03:09:43.472Z,10.60
2019-04-27T03:12:15.747Z,10.60
2019-04-27T03:14:59.699Z,10.60
2019-04-27T03:17:35.879Z,10.50
2019-04-27T03:20:30.103Z,10.40
2019-04-27T03:23:03.159Z,10.40
2019-04-27T03:25:42.412Z,10.30
2019-04-27T03:28:14.367Z,10.40
2019-04-27T03:30:44.808Z,10.50
2019-04-27T03:33:15.312Z,10.50
2019-04-27T03:35:45.661Z,10.50
2019-04-27T03:38:16.163Z,10.40
2019-04-27T03:40:46.621Z,10.40
2019-04-27T03:43:22.908Z,10.30
2019-04-27T03:45:54.052Z,10.30
2019-04-27T03:48:24.399Z,10.30
2019-04-27T03:51:11.998Z,10.30
2019-04-27T03:54:10.829Z,10.30
2019-04-27T03:56:47.120Z,10.30
2019-04-27T03:59:36.494Z,10.30
2019-04-27T04:02:09.941Z,10.30
2019-04-27T04:04:40.632Z,10.20
2019-04-27T04:07:17.031Z,10.20
2019-04-27T04:09:50.093Z,10.30
2019-04-27T04:12:49.859Z,10.30
2019-04-27T04:15:29.706Z,10.30
2019-04-27T04:17:59.650Z,10.20
2019-04-27T04:20:30.531Z,10.10
2019-04-27T04:23:03.377Z,10.10
2019-04-27T04:25:33.419Z,10.10
2019-04-27T04:28:03.770Z,10.10
2019-04-27T04:30:34.179Z,10.10
2019-04-27T04:33:04.560Z,10.00
2019-04-27T04:35:35.027Z,10.00
2019-04-27T04:38:05.621Z,10.00
2019-04-27T04:40:41.506Z,10.10
2019-04-27T04:43:20.011Z,10.30
2019-04-27T04:45:59.630Z,10.80
2019-04-27T04:48:30.371Z,11.70
2019-04-27T04:51:00.779Z,12.30
2019-04-27T04:53:31.223Z,12.90
2019-04-27T04:56:01.573Z,13.80
2019-04-27T04:58:32.510Z,14.60
2019-04-27T05:01:03.009Z,15.20
2019-04-27T05:03:33.361Z,15.10
2019-04-27T05:06:03.826Z,14.70
2019-04-27T05:08:34.250Z,14.20
2019-04-27T05:11:04.591Z,13.90
2019-04-27T05:13:34.960Z,13.50
2019-04-27T05:16:05.394Z,13.30
2019-04-27T05:18:35.866Z,13.10
2019-04-27T05:21:15.654Z,12.80
2019-04-27T05:23:46.149Z,12.60
2019-04-27T05:26:16.486Z,12.50
2019-04-27T05:28:49.101Z,12.40
2019-04-27T05:31:19.527Z,12.50
2019-04-27T05:33:50.029Z,12.70
2019-04-27T05:36:20.362Z,13.00
2019-04-27T05:38:50.708Z,13.30
2019-04-27T05:41:21.077Z,13.70
2019-04-27T05:44:13.553Z,14.20
2019-04-27T05:46:58.634Z,14.60
2019-04-27T05:49:41.036Z,15.60
2019-04-27T05:52:29.936Z,16.60
2019-04-27T05:55:01.136Z,16.90
2019-04-27T05:57:31.746Z,17.10
2019-04-27T06:00:02.726Z,17.10
2019-04-27T06:02:33.279Z,17.00
2019-04-27T06:05:03.630Z,17.30
2019-04-27T06:07:34.039Z,18.00
2019-04-27T06:10:04.514Z,18.50
2019-04-27T06:12:34.932Z,18.90
2019-04-27T06:15:06.298Z,19.00
2019-04-27T06:17:38.516Z,18.70
2019-04-27T06:20:09.080Z,18.60
2019-04-27T06:22:39.687Z,19.00
2019-04-27T06:25:11.716Z,19.10
2019-04-27T06:27:42.334Z,19.20
2019-04-27T06:30:12.791Z,19.40
2019-04-27T06:32:43.195Z,19.40
2019-04-27T06:35:13.548Z,20.00
2019-04-27T06:37:43.946Z,20.40
2019-04-27T06:40:14.398Z,21.00
2019-04-27T06:42:44.773Z,21.10
2019-04-27T06:45:15.162Z,21.20
2019-04-27T06:47:45.442Z,21.40
2019-04-27T06:50:15.883Z,21.80
2019-04-27T06:52:46.311Z,22.00
2019-04-27T06:55:16.666Z,22.20
2019-04-27T06:57:48.918Z,21.80
2019-04-27T07:00:19.134Z,21.70
2019-04-27T07:02:49.478Z,21.90
2019-04-27T07:05:20.471Z,22.10
2019-04-27T07:07:51.006Z,21.50
2019-04-27T07:10:21.282Z,20.80
2019-04-27T07:12:51.790Z,20.80
2019-04-27T07:15:22.146Z,21.20
2019-04-27T07:17:52.530Z,21.40
2019-04-27T07:20:22.870Z,21.60
2019-04-27T07:22:53.403Z,21.50
2019-04-27T07:25:23.750Z,20.90
2019-04-27T07:27:54.031Z,20.50
2019-04-27T07:30:24.387Z,20.30
2019-04-27T07:32:54.866Z,20.40
2019-04-27T07:35:25.147Z,20.70
2019-04-27T07:37:55.578Z,21.00
2019-04-27T07:40:25.983Z,21.20
2019-04-27T07:43:03.015Z,21.40
2019-04-27T07:45:36.479Z,20.80
2019-04-27T07:48:06.922Z,20.30
2019-04-27T07:50:38.834Z,19.90
2019-04-27T07:53:09.215Z,19.80
2019-04-27T07:55:39.694Z,19.80
2019-04-27T07:58:10.060Z,19.70
2019-04-27T08:00:40.405Z,19.50
2019-04-27T08:03:10.844Z,19.30
2019-04-27T08:05:41.266Z,19.50
2019-04-27T08:08:11.538Z,19.90
2019-04-27T08:10:41.947Z,20.20
2019-04-27T08:13:12.286Z,20.70
2019-04-27T08:15:42.673Z,21.10
2019-04-27T08:18:13.010Z,21.70
2019-04-27T08:20:43.378Z,21.70
2019-04-27T08:23:13.781Z,21.90
2019-04-27T08:25:44.226Z,22.10
2019-04-27T08:28:38.651Z,22.50
2019-04-27T08:31:38.586Z,22.50
2019-04-27T08:34:29.571Z,22.50
2019-04-27T08:37:00.817Z,22.90
2019-04-27T08:39:31.417Z,22.70
2019-04-27T08:42:01.802Z,23.10
2019-04-27T08:44:32.234Z,23.20
2019-04-27T08:47:02.578Z,23.00
2019-04-27T08:49:33.083Z,22.90
2019-04-27T08:52:03.503Z,22.70
2019-04-27T08:54:33.805Z,22.30
2019-04-27T08:57:04.363Z,21.90
2019-04-27T08:59:34.718Z,21.70
2019-04-27T09:02:05.098Z,21.50
2019-04-27T09:04:35.547Z,21.10
2019-04-27T09:07:23.463Z,21.20
2019-04-27T09:09:59.748Z,21.40
2019-04-27T09:12:53.621Z,21.60
2019-04-27T09:15:32.256Z,21.80
2019-04-27T09:18:02.831Z,22.00
2019-04-27T09:20:38.855Z,22.20
2019-04-27T09:23:09.889Z,22.20
2019-04-27T09:25:40.481Z,21.80
2019-04-27T09:28:10.840Z,21.40
2019-04-27T09:30:41.199Z,20.90
2019-04-27T09:33:11.556Z,20.60
2019-04-27T09:35:41.926Z,20.40
2019-04-27T09:38:12.293Z,20.30
2019-04-27T09:40:42.795Z,20.60
2019-04-27T09:43:13.303Z,20.80
2019-04-27T09:45:43.739Z,21.10
2019-04-27T09:48:14.059Z,21.20
2019-04-27T09:50:46.567Z,21.40
2019-04-27T09:53:16.572Z,21.50
2019-04-27T09:55:47.040Z,21.50
2019-04-27T09:58:18.510Z,21.10
2019-04-27T10:00:50.159Z,20.70
2019-04-27T10:03:20.427Z,20.10
2019-04-27T10:05:50.907Z,19.70
2019-04-27T10:08:21.303Z,19.40
2019-04-27T10:10:51.656Z,19.20
2019-04-27T10:13:22.164Z,19.00
2019-04-27T10:15:52.650Z,18.90
2019-04-27T10:18:23.012Z,18.80
2019-04-27T10:20:59.797Z,18.80
2019-04-27T10:23:25.434Z,18.60
2019-04-27T10:25:55.835Z,18.60
2019-04-27T10:28:26.218Z,18.60
2019-04-27T10:30:56.656Z,18.70
2019-04-27T10:33:28.036Z,18.90
2019-04-27T10:35:58.406Z,18.90
2019-04-27T10:38:28.736Z,19.00
2019-04-27T10:40:59.100Z,19.00
2019-04-27T10:43:29.556Z,19.10
2019-04-27T10:45:59.888Z,18.90
2019-04-27T10:48:30.244Z,18.80
2019-04-27T10:51:00.702Z,18.70
2019-04-27T10:53:31.019Z,18.60
2019-04-27T10:56:01.326Z,18.40
2019-04-27T10:58:31.778Z,18.40
2019-04-27T11:01:05.474Z,18.30
2019-04-27T11:04:02.548Z,18.20
2019-04-27T11:06:38.634Z,18.30
2019-04-27T11:09:10.246Z,18.40
2019-04-27T11:11:40.751Z,18.30
2019-04-27T11:14:11.221Z,18.30
2019-04-27T11:16:41.670Z,18.20
2019-04-27T11:19:11.969Z,18.20
2019-04-27T11:21:43.205Z,18.10
2019-04-27T11:24:13.571Z,18.00
2019-04-27T11:26:43.916Z,17.90
2019-04-27T11:29:14.382Z,17.90
2019-04-27T11:31:46.404Z,17.70
2019-04-27T11:34:16.922Z,17.70
2019-04-27T11:37:01.408Z,17.70
2019-04-27T11:39:31.986Z,17.80
2019-04-27T11:42:02.342Z,17.80
2019-04-27T11:44:32.814Z,17.90
2019-04-27T11:47:03.178Z,17.90
2019-04-27T11:49:35.875Z,18.10
2019-04-27T11:52:06.422Z,18.30
2019-04-27T11:54:36.871Z,18.40
2019-04-27T11:57:07.654Z,18.40
2019-04-27T11:59:38.191Z,18.50
2019-04-27T12:02:08.563Z,18.50
2019-04-27T12:04:38.987Z,18.60
2019-04-27T12:07:09.342Z,18.80
2019-04-27T12:09:41.663Z,19.00
2019-04-27T12:12:15.968Z,19.20
2019-04-27T12:14:45.440Z,19.30
2019-04-27T12:17:16.559Z,19.40
2019-04-27T12:19:47.014Z,19.30
2019-04-27T12:22:17.411Z,19.30
2019-04-27T12:24:47.699Z,19.10
2019-04-27T12:27:46.086Z,18.80
2019-04-27T12:30:26.148Z,18.60
2019-04-27T12:32:56.639Z,18.50
2019-04-27T12:35:27.151Z,18.40
2019-04-27T12:37:58.123Z,18.30
2019-04-27T12:40:28.422Z,18.40
2019-04-27T12:42:59.020Z,18.50
2019-04-27T12:45:29.521Z,18.70
2019-04-27T12:48:00.114Z,18.80
2019-04-27T12:50:30.834Z,19.00
2019-04-27T12:53:03.639Z,19.20
2019-04-27T12:56:00.231Z,19.30
2019-04-27T12:58:56.488Z,19.40
2019-04-27T13:01:27.385Z,19.20
2019-04-27T13:04:00.134Z,19.10
2019-04-27T13:06:30.538Z,19.00
2019-04-27T13:09:00.862Z,18.90
2019-04-27T13:11:31.258Z,18.80
2019-04-27T13:14:01.750Z,18.70
2019-04-27T13:16:32.418Z,18.60
2019-04-27T13:19:02.806Z,18.50
2019-04-27T13:21:33.906Z,18.50
2019-04-27T13:24:08.232Z,18.50
2019-04-27T13:26:40.140Z,18.60
2019-04-27T13:29:10.754Z,18.60
2019-04-27T13:31:41.039Z,18.60
2019-04-27T13:34:11.549Z,18.60
2019-04-27T13:36:42.056Z,18.60
2019-04-27T13:39:12.576Z,18.60
2019-04-27T13:41:43.027Z,18.40
2019-04-27T13:44:13.427Z,18.50
2019-04-27T13:47:01.699Z,18.50
2019-04-27T13:50:00.327Z,18.60
2019-04-27T13:52:32.207Z,18.60
2019-04-27T13:55:02.504Z,18.70
2019-04-27T13:57:32.870Z,19.00
2019-04-27T14:00:03.200Z,19.10
2019-04-27T14:02:34.813Z,19.20
2019-04-27T14:05:06.024Z,19.20
2019-04-27T14:07:36.366Z,19.00
2019-04-27T14:10:06.895Z,18.70
2019-04-27T14:12:38.553Z,18.40
2019-04-27T14:15:09.514Z,18.10
2019-04-27T14:17:40.240Z,18.00
2019-04-27T14:20:10.887Z,17.70
2019-04-27T14:22:41.270Z,17.50
2019-04-27T14:25:11.654Z,17.20
2019-04-27T14:27:44.799Z,17.10
2019-04-27T14:30:16.549Z,17.00
2019-04-27T14:32:46.759Z,17.00
2019-04-27T14:35:18.122Z,17.00
2019-04-27T14:37:50.210Z,17.10
2019-04-27T14:40:20.647Z,17.20
2019-04-27T14:42:53.500Z,17.30
2019-04-27T14:45:23.234Z,17.40
2019-04-27T14:47:53.674Z,17.40
2019-04-27T14:50:23.959Z,17.40
2019-04-27T14:52:54.348Z,17.50
2019-04-27T14:55:24.794Z,17.50
2019-04-27T14:57:55.138Z,17.50
2019-04-27T15:00:25.501Z,17.50
2019-04-27T15:02:55.822Z,17.50
2019-04-27T15:05:26.323Z,17.60
2019-04-27T15:07:56.594Z,17.60
2019-04-27T15:10:32.804Z,17.70
2019-04-27T15:13:01.604Z,17.80
2019-04-27T15:15:32.623Z,17.80
2019-04-27T15:18:05.387Z,17.90
2019-04-27T15:20:43.933Z,17.90
2019-04-27T15:23:14.143Z,17.90
2019-04-27T15:25:46.919Z,18.00
2019-04-27T15:28:19.823Z,18.00
2019-04-27T15:31:23.605Z,17.90
2019-04-27T15:34:23.367Z,17.90
2019-04-27T15:37:15.598Z,17.90
2019-04-27T15:40:08.283Z,17.90
2019-04-27T15:42:53.479Z,17.90
2019-04-27T15:45:24.497Z,17.80
2019-04-27T15:47:55.016Z,17.60
2019-04-27T15:50:30.704Z,17.50
2019-04-27T15:52:57.631Z,17.40
2019-04-27T15:55:34.605Z,17.30
2019-04-27T15:58:00.246Z,17.20
2019-04-27T16:00:30.613Z,17.10
2019-04-27T16:03:01.122Z,17.00
2019-04-27T16:05:35.842Z,16.90
2019-04-27T16:08:08.019Z,16.80
2019-04-27T16:10:40.247Z,16.70
2019-04-27T16:13:15.006Z,16.60
2019-04-27T16:15:43.013Z,16.50
2019-04-27T16:18:13.460Z,16.50
2019-04-27T16:20:43.937Z,16.40
2019-04-27T16:23:14.667Z,16.30
2019-04-27T16:25:48.605Z,16.30
2019-04-27T16:28:18.382Z,16.20
2019-04-27T16:30:50.654Z,16.10
2019-04-27T16:33:23.528Z,16.10
2019-04-27T16:35:57.044Z,16.00
2019-04-27T16:38:35.659Z,16.00
2019-04-27T16:41:05.943Z,16.00
2019-04-27T16:43:36.379Z,15.80
2019-04-27T16:46:08.760Z,15.80
2019-04-27T16:48:39.417Z,15.70
2019-04-27T16:51:10.836Z,15.60
2019-04-27T16:53:41.636Z,15.50
2019-04-27T16:56:14.687Z,15.50
2019-04-27T16:58:51.012Z,15.50
2019-04-27T17:01:23.267Z,15.30
2019-04-27T17:03:54.170Z,15.20
2019-04-27T17:06:24.719Z,15.20
2019-04-27T17:08:57.280Z,15.10
2019-04-27T17:11:27.441Z,15.00
2019-04-27T17:14:34.828Z,14.90
2019-04-27T17:17:21.177Z,14.90
2019-04-27T17:19:54.358Z,14.70
2019-04-27T17:22:25.101Z,14.70
2019-04-27T17:24:55.439Z,14.60
2019-04-27T17:27:34.394Z,14.50
2019-04-27T17:30:05.935Z,14.40
2019-04-27T17:32:43.231Z,14.30
2019-04-27T17:35:15.049Z,14.20
2019-04-27T17:37:45.873Z,14.10
2019-04-27T17:40:16.232Z,14.00
2019-04-27T17:42:48.188Z,13.80
2019-04-27T17:45:19.397Z,13.80
2019-04-27T17:47:50.854Z,13.70
2019-04-27T17:50:25.157Z,13.60
2019-04-27T17:52:56.811Z,13.50
2019-04-27T17:55:28.061Z,13.40
2019-04-27T17:58:04.758Z,13.30
2019-04-27T18:00:32.905Z,13.20
2019-04-27T18:03:02.579Z,13.00
2019-04-27T18:05:33.137Z,12.80
2019-04-27T18:08:03.466Z,12.70
2019-04-27T18:10:33.860Z,12.60
2019-04-27T18:13:04.267Z,12.50
2019-04-27T18:15:34.619Z,12.40
2019-04-27T18:18:27.054Z,12.20
2019-04-27T18:20:56.378Z,12.00
2019-04-27T18:23:28.518Z,11.90
2019-04-27T18:26:07.215Z,11.80
2019-04-27T18:28:39.060Z,11.70
2019-04-27T18:31:16.038Z,11.70
2019-04-27T18:33:46.280Z,11.70
2019-04-27T18:36:18.130Z,11.80
2019-04-27T18:38:49.674Z,11.90
2019-04-27T18:41:20.446Z,11.80
2019-04-27T18:43:53.927Z,11.60
2019-04-27T18:46:24.746Z,11.50
2019-04-27T18:49:14.273Z,11.70
2019-04-27T18:52:04.632Z,11.60
2019-04-27T18:54:38.216Z,11.50
2019-04-27T18:57:10.914Z,11.30
2019-04-27T18:59:40.982Z,11.00
2019-04-27T19:02:11.424Z,10.80
2019-04-27T19:04:42.091Z,10.60
2019-04-27T19:07:12.558Z,10.40
2019-04-27T19:09:42.881Z,10.30
2019-04-27T19:12:13.291Z,10.20
2019-04-27T19:14:43.964Z,10.10
2019-04-27T19:17:14.282Z,10.00
2019-04-27T19:19:44.758Z,10.00
2019-04-27T19:22:15.206Z,9.80
2019-04-27T19:24:45.681Z,9.70
2019-04-27T19:27:44.184Z,9.50
2019-04-27T19:30:28.106Z,9.50
2019-04-27T19:32:58.608Z,9.40
2019-04-27T19:35:28.990Z,9.20
2019-04-27T19:37:59.442Z,9.20
2019-04-27T19:40:29.785Z,9.10
2019-04-27T19:43:00.156Z,9.10
2019-04-27T19:45:30.506Z,9.10
2019-04-27T19:48:00.917Z,9.10
2019-04-27T19:50:31.354Z,9.10
2019-04-27T19:53:01.855Z,9.00
2019-04-27T19:55:32.678Z,9.00
2019-04-27T19:58:03.234Z,8.90
2019-04-27T20:00:55.407Z,8.80
2019-04-27T20:03:32.040Z,8.70
2019-04-27T20:06:02.864Z,8.60
2019-04-27T20:08:35.239Z,8.40
2019-04-27T20:11:05.694Z,8.30
2019-04-27T20:13:35.997Z,8.20
2019-04-27T20:16:06.575Z,8.10
2019-04-27T20:18:36.859Z,8.00
2019-04-27T20:21:07.311Z,8.00
2019-04-27T20:23:37.692Z,7.90
2019-04-27T20:26:08.166Z,7.90
2019-04-27T20:28:38.680Z,8.00
2019-04-27T20:31:09.112Z,7.90
2019-04-27T20:33:41.497Z,7.80
2019-04-27T20:36:11.791Z,7.70
2019-04-27T20:38:42.270Z,7.60
2019-04-27T20:41:12.594Z,7.60
2019-04-27T20:43:43.059Z,7.50
2019-04-27T20:46:15.363Z,7.50
2019-04-27T20:48:45.749Z,7.40
2019-04-27T20:51:16.211Z,7.30
2019-04-27T20:53:49.166Z,7.20
2019-04-27T20:56:19.539Z,7.30
2019-04-27T20:58:51.040Z,7.30
2019-04-27T21:01:21.507Z,7.30
2019-04-27T21:03:55.943Z,7.30
2019-04-27T21:06:48.406Z,7.20
2019-04-27T21:09:21.162Z,7.10
2019-04-27T21:11:51.194Z,7.00
2019-04-27T21:14:21.814Z,6.90
2019-04-27T21:16:52.738Z,6.80
2019-04-27T21:19:23.189Z,6.80
2019-04-27T21:21:53.536Z,6.80
2019-04-27T21:24:24.099Z,6.80
2019-04-27T21:26:54.538Z,6.70
2019-04-27T21:29:25.009Z,6.60
2019-04-27T21:31:55.350Z,6.60
2019-04-27T21:34:25.696Z,6.70
2019-04-27T21:36:56.038Z,6.80
2019-04-27T21:39:26.378Z,6.80
2019-04-27T21:41:56.654Z,6.80
2019-04-27T21:44:27.017Z,6.70
2019-04-27T21:46:57.401Z,6.70
2019-04-27T21:49:27.859Z,6.60
2019-04-27T21:52:03.601Z,6.50
2019-04-27T21:54:35.232Z,6.40
2019-04-27T21:57:05.540Z,6.40
2019-04-27T21:59:35.921Z,6.40
2019-04-27T22:02:07.671Z,6.40
2019-04-27T22:04:38.139Z,6.40
2019-04-27T22:07:08.494Z,6.40
2019-04-27T22:09:51.795Z,6.40
2019-04-27T22:12:22.258Z,6.40
2019-04-27T22:14:53.032Z,6.40
2019-04-27T22:17:23.599Z,6.30
2019-04-27T22:19:55.699Z,6.40
2019-04-27T22:22:32.583Z,6.50
2019-04-27T22:25:08.217Z,6.50
2019-04-27T22:27:38.753Z,6.50
2019-04-27T22:30:10.989Z,6.40
2019-04-27T22:32:41.766Z,6.30
2019-04-27T22:35:12.292Z,6.30
2019-04-27T22:37:42.628Z,6.30
2019-04-27T22:40:31.561Z,6.30
2019-04-27T22:43:23.883Z,6.30
2019-04-27T22:45:54.980Z,6.30
2019-04-27T22:48:25.327Z,6.20
2019-04-27T22:50:55.754Z,6.20
2019-04-27T22:53:26.085Z,6.20
2019-04-27T22:56:13.488Z,6.20
2019-04-27T22:58:57.430Z,6.10
2019-04-27T23:01:29.967Z,6.10
2019-04-27T23:04:02.015Z,6.10
2019-04-27T23:06:32.806Z,6.10
2019-04-27T23:09:03.166Z,6.10
2019-04-27T23:11:33.535Z,6.10
2019-04-27T23:14:04.198Z,5.90
2019-04-27T23:16:36.237Z,5.90
2019-04-27T23:19:06.592Z,5.70
2019-04-27T23:21:36.950Z,5.60
2019-04-27T23:24:07.733Z,5.60
2019-04-27T23:26:38.187Z,5.50
2019-04-27T23:29:13.700Z,5.50
2019-04-27T23:31:46.393Z,5.50
2019-04-27T23:34:16.746Z,5.40
2019-04-27T23:36:47.127Z,5.30
2019-04-27T23:39:17.842Z,5.20
2019-04-27T23:41:48.299Z,5.20
2019-04-27T23:44:18.655Z,5.20
2019-04-27T23:46:49.089Z,5.10
2019-04-27T23:49:19.699Z,5.10
2019-04-27T23:51:59.300Z,5.10
2019-04-27T23:54:29.764Z,5.10
2019-04-27T23:57:01.740Z,5.00
2019-04-27T23:59:33.314Z,5.10
